createdAt,value
2018-09-14T00:00:51.509Z,46.20
2018-09-14T00:01:51.526Z,44.40
2018-09-14T00:02:51.538Z,45.20
2018-09-14T00:03:51.652Z,44.40
2018-09-14T00:04:51.567Z,42.90
2018-09-14T00:05:51.584Z,44.90
2018-09-14T00:06:51.606Z,42.90
2018-09-14T00:07:51.619Z,45.60
2018-09-14T00:08:51.732Z,45.30
2018-09-14T00:09:51.634Z,45.10
2018-09-14T00:10:51.644Z,44.00
2018-09-14T00:11:51.662Z,43.10
2018-09-14T00:12:51.690Z,43.60
2018-09-14T00:13:51.794Z,44.50
2018-09-14T00:14:51.704Z,42.90
2018-09-14T00:15:51.714Z,44.00
2018-09-14T00:16:51.737Z,45.90
2018-09-14T00:17:51.743Z,44.70
2018-09-14T00:18:51.860Z,45.10
2018-09-14T00:19:51.786Z,45.20
2018-09-14T00:20:51.795Z,44.90
2018-09-14T00:21:51.789Z,45.30
2018-09-14T00:22:51.814Z,45.50
2018-09-14T00:23:51.928Z,45.50
2018-09-14T00:24:51.839Z,44.20
2018-09-14T00:25:51.865Z,44.40
2018-09-14T00:26:51.866Z,45.90
2018-09-14T00:27:51.888Z,45.30
2018-09-14T00:28:51.998Z,46.60
2018-09-14T00:29:51.907Z,45.50
2018-09-14T00:30:51.935Z,43.50
2018-09-14T00:31:51.936Z,41.70
2018-09-14T00:32:51.945Z,42.00
2018-09-14T00:33:52.067Z,40.40
2018-09-14T00:34:51.983Z,40.70
2018-09-14T00:35:51.996Z,41.30
2018-09-14T00:36:52.014Z,41.40
2018-09-14T00:37:52.008Z,41.60
2018-09-14T00:38:52.121Z,41.70
2018-09-14T00:39:52.050Z,40.60
2018-09-14T00:40:52.065Z,41.30
2018-09-14T00:41:52.081Z,42.60
2018-09-14T00:42:52.082Z,43.50
2018-09-14T00:43:52.193Z,44.80
2018-09-14T00:44:52.120Z,45.20
2018-09-14T00:45:52.134Z,46.60
2018-09-14T00:46:52.133Z,46.70
2018-09-14T00:47:52.150Z,46.60
2018-09-14T00:48:52.269Z,45.90
2018-09-14T00:49:52.177Z,46.20
2018-09-14T00:50:52.195Z,47.10
2018-09-14T00:51:52.210Z,47.10
2018-09-14T00:52:52.216Z,47.20
2018-09-14T00:53:52.382Z,48.90
2018-09-14T00:54:52.255Z,47.70
2018-09-14T00:55:52.266Z,49.00
2018-09-14T00:56:52.270Z,48.50
2018-09-14T00:57:52.286Z,49.30
2018-09-14T00:58:52.310Z,50.00
2018-09-14T00:59:52.574Z,50.00
2018-09-14T01:00:52.334Z,50.20
2018-09-14T01:01:52.345Z,51.40
2018-09-14T01:02:52.362Z,52.00
2018-09-14T01:03:52.374Z,50.70
2018-09-14T01:04:52.540Z,50.70
2018-09-14T01:05:52.390Z,52.50
2018-09-14T01:06:52.416Z,51.30
2018-09-14T01:07:52.412Z,51.90
2018-09-14T01:08:52.445Z,52.50
2018-09-14T01:09:52.555Z,50.00
2018-09-14T01:10:52.463Z,42.30
2018-09-14T01:11:52.477Z,36.90
2018-09-14T01:12:52.485Z,40.70
2018-09-14T01:13:52.501Z,40.60
2018-09-14T01:14:52.677Z,37.70
2018-09-14T01:15:52.523Z,41.40
2018-09-14T01:16:52.540Z,43.60
2018-09-14T01:17:52.565Z,47.20
2018-09-14T01:18:52.576Z,45.70
2018-09-14T01:19:52.677Z,45.20
2018-09-14T01:20:52.587Z,46.40
2018-09-14T01:21:52.613Z,45.70
2018-09-14T01:22:52.624Z,46.60
2018-09-14T01:23:52.640Z,46.40
2018-09-14T01:24:52.757Z,44.80
2018-09-14T01:25:52.670Z,45.90
2018-09-14T01:26:52.690Z,47.60
2018-09-14T01:27:52.698Z,48.20
2018-09-14T01:28:52.697Z,48.00
2018-09-14T01:29:52.971Z,47.60
2018-09-14T01:30:52.726Z,48.80
2018-09-14T01:31:52.739Z,47.70
2018-09-14T01:32:52.763Z,48.20
2018-09-14T01:33:52.779Z,46.40
2018-09-14T01:34:52.888Z,49.30
2018-09-14T01:35:52.793Z,50.20
2018-09-14T01:36:52.816Z,52.50
2018-09-14T01:37:52.818Z,50.10
2018-09-14T01:38:52.829Z,52.90
2018-09-14T01:39:53.092Z,53.00
2018-09-14T01:40:52.876Z,52.80
2018-09-14T01:41:52.882Z,54.20
2018-09-14T01:42:52.897Z,54.90
2018-09-14T01:43:52.894Z,53.60
2018-09-14T01:44:53.165Z,54.60
2018-09-14T01:45:52.920Z,56.20
2018-09-14T01:46:52.936Z,54.70
2018-09-14T01:47:52.960Z,55.00
2018-09-14T01:48:52.992Z,56.40
2018-09-14T01:49:53.080Z,55.30
2018-09-14T01:50:52.996Z,55.20
2018-09-14T01:51:53.003Z,55.50
2018-09-14T01:52:53.026Z,55.50
2018-09-14T01:53:53.042Z,57.00
2018-09-14T01:54:53.151Z,57.40
2018-09-14T01:55:53.051Z,58.20
2018-09-14T01:56:53.065Z,60.00
2018-09-14T01:57:53.078Z,58.00
2018-09-14T01:58:53.093Z,62.90
2018-09-14T01:59:53.353Z,66.20
2018-09-14T02:00:53.122Z,67.60
2018-09-14T02:01:53.140Z,66.80
2018-09-14T02:02:53.151Z,67.90
2018-09-14T02:03:53.170Z,70.30
2018-09-14T02:04:53.182Z,68.50
2018-09-14T02:05:53.282Z,69.60
2018-09-14T02:06:53.198Z,72.70
2018-09-14T02:07:53.221Z,68.50
2018-09-14T02:08:53.222Z,73.20
2018-09-14T02:09:53.235Z,70.50
2018-09-14T02:10:53.259Z,69.50
2018-09-14T02:11:53.377Z,76.70
2018-09-14T02:12:53.289Z,74.30
2018-09-14T02:13:53.302Z,71.50
2018-09-14T02:14:53.315Z,71.70
2018-09-14T02:15:53.328Z,76.60
2018-09-14T02:16:53.440Z,77.00
2018-09-14T02:17:53.348Z,74.70
2018-09-14T02:18:53.354Z,78.50
2018-09-14T02:19:53.377Z,77.00
2018-09-14T02:20:53.382Z,83.00
2018-09-14T02:21:53.505Z,86.90
2018-09-14T02:22:53.408Z,83.70
2018-09-14T02:23:53.433Z,89.60
2018-09-14T02:24:53.433Z,94.50
2018-09-14T02:25:53.461Z,94.40
2018-09-14T02:26:53.566Z,95.50
2018-09-14T02:27:53.472Z,93.80
2018-09-14T02:28:53.501Z,97.30
2018-09-14T02:29:53.514Z,93.90
2018-09-14T02:30:53.515Z,92.80
2018-09-14T02:31:53.638Z,95.20
2018-09-14T02:32:53.553Z,101.00
2018-09-14T02:33:53.559Z,102.20
2018-09-14T02:34:53.571Z,102.10
2018-09-14T02:35:53.585Z,102.00
2018-09-14T02:36:53.694Z,112.00
2018-09-14T02:37:53.622Z,114.50
2018-09-14T02:38:53.629Z,116.50
2018-09-14T02:39:53.629Z,109.30
2018-09-14T02:40:53.648Z,101.30
2018-09-14T02:41:53.818Z,106.50
2018-09-14T02:42:53.679Z,109.10
2018-09-14T02:43:53.711Z,110.00
2018-09-14T02:44:53.711Z,110.50
2018-09-14T02:45:53.713Z,108.40
2018-09-14T02:46:53.859Z,106.10
2018-09-14T02:47:53.747Z,128.70
2018-09-14T02:48:53.745Z,112.50
2018-09-14T02:49:53.771Z,120.20
2018-09-14T02:50:53.785Z,111.20
2018-09-14T02:51:53.904Z,113.70
2018-09-14T02:52:53.812Z,106.80
2018-09-14T02:53:53.813Z,109.70
2018-09-14T02:54:53.830Z,108.00
2018-09-14T02:55:53.849Z,113.40
2018-09-14T02:56:53.961Z,121.30
2018-09-14T02:57:53.865Z,124.70
2018-09-14T02:58:53.889Z,116.10
2018-09-14T02:59:53.902Z,116.20
2018-09-14T03:00:53.908Z,110.90
2018-09-14T03:01:54.084Z,120.80
2018-09-14T03:02:53.929Z,119.80
2018-09-14T03:03:53.942Z,119.50
2018-09-14T03:04:53.957Z,119.70
2018-09-14T03:05:53.972Z,119.50
2018-09-14T03:06:54.097Z,115.00
2018-09-14T03:07:53.993Z,122.10
2018-09-14T03:08:54.021Z,117.30
2018-09-14T03:09:54.027Z,118.50
2018-09-14T03:10:54.035Z,118.60
2018-09-14T03:11:54.145Z,116.70
2018-09-14T03:12:54.060Z,117.10
2018-09-14T03:13:54.076Z,116.30
2018-09-14T03:14:54.090Z,119.30
2018-09-14T03:15:54.111Z,112.20
2018-09-14T03:16:54.280Z,106.00
2018-09-14T03:17:54.136Z,118.20
2018-09-14T03:18:54.135Z,109.50
2018-09-14T03:19:54.164Z,103.20
2018-09-14T03:20:54.173Z,102.80
2018-09-14T03:21:54.189Z,87.10
2018-09-14T03:22:54.301Z,94.20
2018-09-14T03:23:54.204Z,90.40
2018-09-14T03:24:54.216Z,86.70
2018-09-14T03:25:54.229Z,84.10
2018-09-14T03:26:54.253Z,82.30
2018-09-14T03:27:54.262Z,74.40
2018-09-14T03:28:54.369Z,75.50
2018-09-14T03:29:54.276Z,81.20
2018-09-14T03:30:54.306Z,75.50
2018-09-14T03:31:54.315Z,69.40
2018-09-14T03:32:54.317Z,69.80
2018-09-14T03:33:54.489Z,64.30
2018-09-14T03:34:54.345Z,64.30
2018-09-14T03:35:54.374Z,58.50
2018-09-14T03:36:54.385Z,60.60
2018-09-14T03:37:54.396Z,57.80
2018-09-14T03:38:54.515Z,59.50
2018-09-14T03:39:54.414Z,55.10
2018-09-14T03:40:54.440Z,52.60
2018-09-14T03:41:54.451Z,59.70
2018-09-14T03:42:54.458Z,53.90
2018-09-14T03:43:54.727Z,54.10
2018-09-14T03:44:54.477Z,53.20
2018-09-14T03:45:54.483Z,49.40
2018-09-14T03:46:54.502Z,50.70
2018-09-14T03:47:54.543Z,49.70
2018-09-14T03:48:54.785Z,47.40
2018-09-14T03:49:54.559Z,45.90
2018-09-14T03:50:54.555Z,43.10
2018-09-14T03:51:54.581Z,42.20
2018-09-14T03:52:54.581Z,49.00
2018-09-14T03:53:54.847Z,43.50
2018-09-14T03:54:54.612Z,43.30
2018-09-14T03:55:54.637Z,41.30
2018-09-14T03:56:54.634Z,41.70
2018-09-14T03:57:54.658Z,41.90
2018-09-14T03:58:54.824Z,41.80
2018-09-14T03:59:54.696Z,40.50
2018-09-14T04:00:54.686Z,38.10
2018-09-14T04:01:54.701Z,38.30
2018-09-14T04:02:54.727Z,37.80
2018-09-14T04:03:54.826Z,38.70
2018-09-14T04:04:54.743Z,40.10
2018-09-14T04:05:54.765Z,39.00
2018-09-14T04:06:54.772Z,40.00
2018-09-14T04:07:54.894Z,38.70
2018-09-14T04:08:54.907Z,39.80
2018-09-14T04:09:54.835Z,41.00
2018-09-14T04:10:54.819Z,38.50
2018-09-14T04:11:54.832Z,41.10
2018-09-14T04:12:54.847Z,37.50
2018-09-14T04:13:54.976Z,42.50
2018-09-14T04:14:54.870Z,39.70
2018-09-14T04:15:54.901Z,40.50
2018-09-14T04:16:54.917Z,41.30
2018-09-14T04:17:54.922Z,48.00
2018-09-14T04:18:55.021Z,43.60
2018-09-14T04:19:54.947Z,43.40
2018-09-14T04:20:54.966Z,42.40
2018-09-14T04:21:54.963Z,45.20
2018-09-14T04:22:54.990Z,43.60
2018-09-14T04:23:55.096Z,42.50
2018-09-14T04:24:55.010Z,43.00
2018-09-14T04:25:55.025Z,41.10
2018-09-14T04:26:55.029Z,42.60
2018-09-14T04:27:55.042Z,42.20
2018-09-14T04:28:55.221Z,44.70
2018-09-14T04:29:55.076Z,44.80
2018-09-14T04:30:55.089Z,48.30
2018-09-14T04:31:55.110Z,43.30
2018-09-14T04:32:55.116Z,47.20
2018-09-14T04:33:55.339Z,48.20
2018-09-14T04:34:55.155Z,44.80
2018-09-14T04:35:55.166Z,45.40
2018-09-14T04:36:55.176Z,50.70
2018-09-14T04:37:55.246Z,47.80
2018-09-14T04:38:55.191Z,56.10
2018-09-14T04:39:55.360Z,58.20
2018-09-14T04:40:55.230Z,51.70
2018-09-14T04:41:55.243Z,49.30
2018-09-14T04:42:55.249Z,52.80
2018-09-14T04:43:55.271Z,49.40
2018-09-14T04:44:55.523Z,47.20
2018-09-14T04:45:55.284Z,47.60
2018-09-14T04:46:55.315Z,48.50
2018-09-14T04:47:55.311Z,48.50
2018-09-14T04:48:55.333Z,56.70
2018-09-14T04:49:55.602Z,53.90
2018-09-14T04:50:55.365Z,56.10
2018-09-14T04:51:55.382Z,58.10
2018-09-14T04:52:55.376Z,59.30
2018-09-14T04:53:55.404Z,53.00
2018-09-14T04:54:55.508Z,56.50
2018-09-14T04:55:55.422Z,53.30
2018-09-14T04:56:55.439Z,50.30
2018-09-14T04:57:55.444Z,51.40
2018-09-14T04:58:55.470Z,45.70
2018-09-14T04:59:55.721Z,51.70
2018-09-14T05:00:55.499Z,51.90
2018-09-14T05:01:55.501Z,49.10
2018-09-14T05:02:55.524Z,46.10
2018-09-14T05:03:55.532Z,53.70
2018-09-14T05:04:55.800Z,54.80
2018-09-14T05:05:55.560Z,57.00
2018-09-14T05:06:55.573Z,69.80
2018-09-14T05:07:55.592Z,72.70
2018-09-14T05:08:55.602Z,68.20
2018-09-14T05:09:55.767Z,56.30
2018-09-14T05:10:55.629Z,57.60
2018-09-14T05:11:55.644Z,53.10
2018-09-14T05:12:55.656Z,52.20
2018-09-14T05:13:55.654Z,47.10
2018-09-14T05:14:55.775Z,47.80
2018-09-14T05:15:55.695Z,53.00
2018-09-14T05:16:55.698Z,52.70
2018-09-14T05:17:55.713Z,55.10
2018-09-14T05:18:55.738Z,54.10
2018-09-14T05:19:55.849Z,59.60
2018-09-14T05:20:55.754Z,55.20
2018-09-14T05:21:55.764Z,49.10
2018-09-14T05:22:55.777Z,51.20
2018-09-14T05:23:55.878Z,52.50
2018-09-14T05:24:55.942Z,54.70
2018-09-14T05:25:55.827Z,49.50
2018-09-14T05:26:55.830Z,56.70
2018-09-14T05:27:55.860Z,58.00
2018-09-14T05:28:55.868Z,51.30
2018-09-14T05:29:55.973Z,56.90
2018-09-14T05:30:55.894Z,49.00
2018-09-14T05:31:55.896Z,49.30
2018-09-14T05:32:55.910Z,46.90
2018-09-14T05:33:55.925Z,46.70
2018-09-14T05:34:56.042Z,53.50
2018-09-14T05:35:55.958Z,49.70
2018-09-14T05:36:55.965Z,40.60
2018-09-14T05:37:55.982Z,45.00
2018-09-14T05:38:56.001Z,44.30
2018-09-14T05:39:56.261Z,49.40
2018-09-14T05:40:56.031Z,42.50
2018-09-14T05:41:56.065Z,44.30
2018-09-14T05:42:56.048Z,46.80
2018-09-14T05:43:56.051Z,43.30
2018-09-14T05:44:56.072Z,48.50
2018-09-14T05:45:56.341Z,42.10
2018-09-14T05:46:56.105Z,41.10
2018-09-14T05:47:56.116Z,44.40
2018-09-14T05:48:56.133Z,47.30
2018-09-14T05:49:56.133Z,46.30
2018-09-14T05:50:56.149Z,43.30
2018-09-14T05:51:56.348Z,45.90
2018-09-14T05:52:56.186Z,42.80
2018-09-14T05:53:56.188Z,45.30
2018-09-14T05:54:56.201Z,43.90
2018-09-14T05:55:56.215Z,44.40
2018-09-14T05:56:56.239Z,41.90
2018-09-14T05:57:56.338Z,46.70
2018-09-14T05:58:56.267Z,38.30
2018-09-14T05:59:56.266Z,40.60
2018-09-14T06:00:56.286Z,38.40
2018-09-14T06:01:56.294Z,30.70
2018-09-14T06:02:56.557Z,34.30
2018-09-14T06:03:56.321Z,36.20
2018-09-14T06:04:56.346Z,33.60
2018-09-14T06:05:56.351Z,35.60
2018-09-14T06:06:56.370Z,36.10
2018-09-14T06:07:56.484Z,36.70
2018-09-14T06:08:56.398Z,36.10
2018-09-14T06:09:56.405Z,36.40
2018-09-14T06:10:56.420Z,38.90
2018-09-14T06:11:56.434Z,37.90
2018-09-14T06:12:56.545Z,35.40
2018-09-14T06:13:56.453Z,43.90
2018-09-14T06:14:56.469Z,41.80
2018-09-14T06:15:56.480Z,37.10
2018-09-14T06:16:56.543Z,43.00
2018-09-14T06:17:56.754Z,40.20
2018-09-14T06:18:56.520Z,39.00
2018-09-14T06:19:56.529Z,39.30
2018-09-14T06:20:56.549Z,43.70
2018-09-14T06:21:56.557Z,45.70
2018-09-14T06:22:56.699Z,36.80
2018-09-14T06:23:56.596Z,42.80
2018-09-14T06:24:56.606Z,46.10
2018-09-14T06:25:56.620Z,44.80
2018-09-14T06:26:56.635Z,44.50
2018-09-14T06:27:56.797Z,46.70
2018-09-14T06:28:56.660Z,48.40
2018-09-14T06:29:56.673Z,55.00
2018-09-14T06:30:56.682Z,47.80
2018-09-14T06:31:56.691Z,46.50
2018-09-14T06:32:56.851Z,52.20
2018-09-14T06:33:56.733Z,55.30
2018-09-14T06:34:56.741Z,50.80
2018-09-14T06:35:56.750Z,46.60
2018-09-14T06:36:56.759Z,50.10
2018-09-14T06:37:56.917Z,45.20
2018-09-14T06:38:56.784Z,50.20
2018-09-14T06:39:56.792Z,41.70
2018-09-14T06:40:56.806Z,47.70
2018-09-14T06:41:56.828Z,37.60
2018-09-14T06:42:56.932Z,43.50
2018-09-14T06:43:56.863Z,44.20
2018-09-14T06:44:56.944Z,38.10
2018-09-14T06:45:56.867Z,41.60
2018-09-14T06:46:56.885Z,41.00
2018-09-14T06:47:57.063Z,41.50
2018-09-14T06:48:56.926Z,38.00
2018-09-14T06:49:56.930Z,40.90
2018-09-14T06:50:56.950Z,40.80
2018-09-14T06:51:56.976Z,39.00
2018-09-14T06:52:57.116Z,32.80
2018-09-14T06:53:56.971Z,41.40
2018-09-14T06:54:57.002Z,39.60
2018-09-14T06:55:57.019Z,39.00
2018-09-14T06:56:57.016Z,35.20
2018-09-14T06:57:57.284Z,42.60
2018-09-14T06:58:57.053Z,39.00
2018-09-14T06:59:57.107Z,39.70
2018-09-14T07:00:57.075Z,35.10
2018-09-14T07:01:57.092Z,34.10
2018-09-14T07:02:57.109Z,34.00
2018-09-14T07:03:57.358Z,35.90
2018-09-14T07:04:57.114Z,37.30
2018-09-14T07:05:57.135Z,31.20
2018-09-14T07:06:57.151Z,36.30
2018-09-14T07:07:57.169Z,36.60
2018-09-14T07:08:57.174Z,37.10
2018-09-14T07:09:57.467Z,36.90
2018-09-14T07:10:57.198Z,35.40
2018-09-14T07:11:57.221Z,31.90
2018-09-14T07:12:57.235Z,30.80
2018-09-14T07:13:57.235Z,27.20
2018-09-14T07:14:57.348Z,30.30
2018-09-14T07:15:57.261Z,24.20
2018-09-14T07:16:57.290Z,27.00
2018-09-14T07:17:57.297Z,25.80
2018-09-14T07:18:57.321Z,25.00
2018-09-14T07:19:57.413Z,25.50
2018-09-14T07:20:57.339Z,29.80
2018-09-14T07:21:57.491Z,26.90
2018-09-14T07:22:57.364Z,27.80
2018-09-14T07:23:57.368Z,27.80
2018-09-14T07:24:57.612Z,29.80
2018-09-14T07:25:57.424Z,24.40
2018-09-14T07:26:57.411Z,26.50
2018-09-14T07:27:57.458Z,26.30
2018-09-14T07:28:57.453Z,23.10
2018-09-14T07:29:57.601Z,22.50
2018-09-14T07:30:57.493Z,20.80
2018-09-14T07:31:57.481Z,22.80
2018-09-14T07:32:57.484Z,23.40
2018-09-14T07:33:57.492Z,22.90
2018-09-14T07:34:57.666Z,23.30
2018-09-14T07:35:57.529Z,24.00
2018-09-14T07:36:57.533Z,22.50
2018-09-14T07:37:57.555Z,28.50
2018-09-14T07:38:57.558Z,22.20
2018-09-14T07:39:57.683Z,23.10
2018-09-14T07:40:57.585Z,24.20
2018-09-14T07:41:57.610Z,22.00
2018-09-14T07:42:57.619Z,25.10
2018-09-14T07:43:57.632Z,20.90
2018-09-14T07:44:57.794Z,26.60
2018-09-14T07:45:57.652Z,28.10
2018-09-14T07:46:57.667Z,25.60
2018-09-14T07:47:57.680Z,26.40
2018-09-14T07:48:57.696Z,25.50
2018-09-14T07:49:57.808Z,30.20
2018-09-14T07:50:57.711Z,25.00
2018-09-14T07:51:57.726Z,23.80
2018-09-14T07:52:57.744Z,26.20
2018-09-14T07:53:57.756Z,30.10
2018-09-14T07:54:57.919Z,22.60
2018-09-14T07:55:57.783Z,26.40
2018-09-14T07:56:57.801Z,24.40
2018-09-14T07:57:57.802Z,34.10
2018-09-14T07:58:57.810Z,30.80
2018-09-14T07:59:58.077Z,29.80
2018-09-14T08:00:57.850Z,25.50
2018-09-14T08:01:57.867Z,26.40
2018-09-14T08:02:57.875Z,20.70
2018-09-14T08:03:57.875Z,28.50
2018-09-14T08:04:57.999Z,26.80
2018-09-14T08:05:57.902Z,23.50
2018-09-14T08:06:57.925Z,27.80
2018-09-14T08:07:57.940Z,25.60
2018-09-14T08:08:57.954Z,24.20
2018-09-14T08:09:58.066Z,22.80
2018-09-14T08:10:57.970Z,19.70
2018-09-14T08:11:57.985Z,26.50
2018-09-14T08:12:58.005Z,24.40
2018-09-14T08:13:58.015Z,22.70
2018-09-14T08:14:58.127Z,19.20
2018-09-14T08:15:58.035Z,19.30
2018-09-14T08:16:58.057Z,19.90
2018-09-14T08:17:58.063Z,24.20
2018-09-14T08:18:58.087Z,21.50
2018-09-14T08:19:58.394Z,29.90
2018-09-14T08:20:58.120Z,25.00
2018-09-14T08:21:58.151Z,27.70
2018-09-14T08:22:58.132Z,22.60
2018-09-14T08:23:58.151Z,23.30
2018-09-14T08:24:58.144Z,29.80
2018-09-14T08:25:58.263Z,29.40
2018-09-14T08:26:58.204Z,22.90
2018-09-14T08:27:58.189Z,30.80
2018-09-14T08:28:58.213Z,31.90
2018-09-14T08:29:58.208Z,30.70
2018-09-14T08:30:58.487Z,29.40
2018-09-14T08:31:58.241Z,29.00
2018-09-14T08:32:58.255Z,27.50
2018-09-14T08:33:58.268Z,28.20
2018-09-14T08:34:58.272Z,29.10
2018-09-14T08:35:58.559Z,28.30
2018-09-14T08:36:58.313Z,29.40
2018-09-14T08:37:58.316Z,21.90
2018-09-14T08:38:58.328Z,25.30
2018-09-14T08:39:58.336Z,24.40
2018-09-14T08:40:58.618Z,29.20
2018-09-14T08:41:58.377Z,30.70
2018-09-14T08:42:58.381Z,29.20
2018-09-14T08:43:58.402Z,25.00
2018-09-14T08:44:58.410Z,26.40
2018-09-14T08:45:58.519Z,33.60
2018-09-14T08:46:58.429Z,30.80
2018-09-14T08:47:58.500Z,31.90
2018-09-14T08:48:58.466Z,33.20
2018-09-14T08:49:58.485Z,38.70
2018-09-14T08:50:58.582Z,30.20
2018-09-14T08:51:58.493Z,22.70
2018-09-14T08:52:58.520Z,22.50
2018-09-14T08:53:58.533Z,23.40
2018-09-14T08:54:58.551Z,23.00
2018-09-14T08:55:58.846Z,21.60
2018-09-14T08:56:58.563Z,22.80
2018-09-14T08:57:58.605Z,22.80
2018-09-14T08:58:58.583Z,21.80
2018-09-14T08:59:58.597Z,22.60
2018-09-14T09:00:58.863Z,22.10
2018-09-14T09:01:58.626Z,23.60
2018-09-14T09:02:58.632Z,23.90
2018-09-14T09:03:58.738Z,24.20
2018-09-14T09:04:58.659Z,24.70
2018-09-14T09:05:58.927Z,24.10
2018-09-14T09:06:58.691Z,24.50
2018-09-14T09:07:58.707Z,25.10
2018-09-14T09:08:58.732Z,24.30
2018-09-14T09:09:58.736Z,23.80
2018-09-14T09:10:58.855Z,22.60
2018-09-14T09:11:58.761Z,22.60
2018-09-14T09:12:58.768Z,22.90
2018-09-14T09:13:58.790Z,24.20
2018-09-14T09:14:58.797Z,26.20
2018-09-14T09:15:59.074Z,27.30
2018-09-14T09:16:58.819Z,28.50
2018-09-14T09:17:58.843Z,25.40
2018-09-14T09:18:58.848Z,27.50
2018-09-14T09:19:58.861Z,27.00
2018-09-14T09:20:59.018Z,28.00
2018-09-14T09:21:58.897Z,26.90
2018-09-14T09:22:58.893Z,25.50
2018-09-14T09:23:58.908Z,27.00
2018-09-14T09:24:58.930Z,27.60
2018-09-14T09:25:59.032Z,27.40
2018-09-14T09:26:58.947Z,26.60
2018-09-14T09:27:58.967Z,30.70
2018-09-14T09:28:58.975Z,30.80
2018-09-14T09:29:58.987Z,29.10
2018-09-14T09:30:59.099Z,28.70
2018-09-14T09:31:59.019Z,31.20
2018-09-14T09:32:59.025Z,29.50
2018-09-14T09:33:59.060Z,31.10
2018-09-14T09:34:59.071Z,28.50
2018-09-14T09:35:59.328Z,31.30
2018-09-14T09:36:59.087Z,28.20
2018-09-14T09:37:59.094Z,32.00
2018-09-14T09:38:59.114Z,29.80
2018-09-14T09:39:59.126Z,30.80
2018-09-14T09:40:59.125Z,28.70
2018-09-14T09:41:59.238Z,31.00
2018-09-14T09:42:59.156Z,30.50
2018-09-14T09:43:59.243Z,29.20
2018-09-14T09:44:59.187Z,30.30
2018-09-14T09:45:59.194Z,28.50
2018-09-14T09:46:59.306Z,31.10
2018-09-14T09:47:59.215Z,29.00
2018-09-14T09:48:59.236Z,30.10
2018-09-14T09:49:59.246Z,30.50
2018-09-14T09:50:59.345Z,33.20
2018-09-14T09:51:59.381Z,35.30
2018-09-14T09:52:59.285Z,32.20
2018-09-14T09:53:59.309Z,32.60
2018-09-14T09:54:59.327Z,35.50
2018-09-14T09:55:59.323Z,35.50
2018-09-14T09:56:59.439Z,32.70
2018-09-14T09:57:59.364Z,33.40
2018-09-14T09:58:59.360Z,33.80
2018-09-14T09:59:59.387Z,34.50
2018-09-14T10:00:59.382Z,36.70
2018-09-14T10:01:59.494Z,33.50
2018-09-14T10:02:59.432Z,33.90
2018-09-14T10:03:59.500Z,33.00
2018-09-14T10:04:59.450Z,32.70
2018-09-14T10:05:59.464Z,33.60
2018-09-14T10:06:59.566Z,48.00
2018-09-14T10:07:59.478Z,48.10
2018-09-14T10:08:59.498Z,59.50
2018-09-14T10:09:59.514Z,40.40
2018-09-14T10:10:59.528Z,37.20
2018-09-14T10:11:59.640Z,41.50
2018-09-14T10:12:59.548Z,41.20
2018-09-14T10:13:59.569Z,42.30
2018-09-14T10:14:59.600Z,38.60
2018-09-14T10:15:59.599Z,34.70
2018-09-14T10:16:59.859Z,41.20
2018-09-14T10:17:59.619Z,44.00
2018-09-14T10:18:59.622Z,36.00
2018-09-14T10:19:59.635Z,44.30
2018-09-14T10:20:59.798Z,65.70
2018-09-14T10:21:59.773Z,42.80
2018-09-14T10:22:59.688Z,50.50
2018-09-14T10:23:59.696Z,45.40
2018-09-14T10:24:59.715Z,45.00
2018-09-14T10:25:59.728Z,58.80
2018-09-14T10:26:59.892Z,59.10
2018-09-14T10:27:59.752Z,63.70
2018-09-14T10:28:59.838Z,62.00
2018-09-14T10:29:59.767Z,57.50
2018-09-14T10:30:59.788Z,53.90
2018-09-14T10:31:59.943Z,52.10
2018-09-14T10:32:59.804Z,50.80
2018-09-14T10:33:59.828Z,50.40
2018-09-14T10:34:59.848Z,49.70
2018-09-14T10:35:59.843Z,50.00
2018-09-14T10:37:00.081Z,53.20
2018-09-14T10:37:59.878Z,52.60
2018-09-14T10:38:59.890Z,56.00
2018-09-14T10:39:59.946Z,49.20
2018-09-14T10:40:59.916Z,52.10
2018-09-14T10:42:00.077Z,54.90
2018-09-14T10:42:59.944Z,53.50
2018-09-14T10:43:59.941Z,53.80
2018-09-14T10:44:59.964Z,57.20
2018-09-14T10:45:59.980Z,55.40
2018-09-14T10:47:00.080Z,58.80
2018-09-14T10:48:00.007Z,54.40
2018-09-14T10:49:00.007Z,52.50
2018-09-14T10:50:00.054Z,60.20
2018-09-14T10:51:00.031Z,62.50
2018-09-14T10:52:00.195Z,57.70
2018-09-14T10:53:00.065Z,60.90
2018-09-14T10:54:00.062Z,57.90
2018-09-14T10:55:00.087Z,55.60
2018-09-14T10:56:00.088Z,56.10
2018-09-14T10:57:00.108Z,55.40
2018-09-14T10:58:00.229Z,50.80
2018-09-14T10:59:00.123Z,57.30
2018-09-14T11:00:00.150Z,55.70
2018-09-14T11:01:00.164Z,52.30
2018-09-14T11:02:00.180Z,44.40
2018-09-14T11:03:00.177Z,41.30
2018-09-14T11:04:00.440Z,54.60
2018-09-14T11:05:00.210Z,54.60
2018-09-14T11:06:00.223Z,55.20
2018-09-14T11:07:00.347Z,51.20
2018-09-14T11:08:00.248Z,57.10
2018-09-14T11:09:00.352Z,58.40
2018-09-14T11:10:00.284Z,59.30
2018-09-14T11:11:00.285Z,62.10
2018-09-14T11:12:00.298Z,74.40
2018-09-14T11:13:00.359Z,76.20
2018-09-14T11:14:00.430Z,75.00
2018-09-14T11:15:00.337Z,72.10
2018-09-14T11:16:00.353Z,66.10
2018-09-14T11:17:00.367Z,73.30
2018-09-14T11:18:00.364Z,69.60
2018-09-14T11:19:00.525Z,63.60
2018-09-14T11:20:00.400Z,66.00
2018-09-14T11:21:00.400Z,64.30
2018-09-14T11:22:00.415Z,63.70
2018-09-14T11:23:00.435Z,65.60
2018-09-14T11:24:00.692Z,65.20
2018-09-14T11:25:00.572Z,57.60
2018-09-14T11:26:00.474Z,54.60
2018-09-14T11:27:00.488Z,54.40
2018-09-14T11:28:00.565Z,54.60
2018-09-14T11:29:00.614Z,51.70
2018-09-14T11:30:00.530Z,49.30
2018-09-14T11:31:00.545Z,49.80
2018-09-14T11:32:00.547Z,46.70
2018-09-14T11:33:00.569Z,46.00
2018-09-14T11:34:00.836Z,50.10
2018-09-14T11:35:00.595Z,52.80
2018-09-14T11:36:00.595Z,48.80
2018-09-14T11:37:00.623Z,53.20
2018-09-14T11:38:00.685Z,49.40
2018-09-14T11:39:00.896Z,43.60
2018-09-14T11:40:00.651Z,40.80
2018-09-14T11:41:00.676Z,41.60
2018-09-14T11:42:00.685Z,32.40
2018-09-14T11:43:00.692Z,33.30
2018-09-14T11:44:00.812Z,30.40
2018-09-14T11:45:00.712Z,30.90
2018-09-14T11:46:00.798Z,26.40
2018-09-14T11:47:00.742Z,30.10
2018-09-14T11:48:00.779Z,33.70
2018-09-14T11:49:00.877Z,28.60
2018-09-14T11:50:00.790Z,27.80
2018-09-14T11:51:00.791Z,31.90
2018-09-14T11:52:00.816Z,30.60
2018-09-14T11:53:00.828Z,33.20
2018-09-14T11:54:00.928Z,29.90
2018-09-14T11:55:00.852Z,30.30
2018-09-14T11:56:00.868Z,30.30
2018-09-14T11:57:00.886Z,30.50
2018-09-14T11:58:00.897Z,28.70
2018-09-14T11:59:01.007Z,31.90
2018-09-14T12:00:00.916Z,32.10
2018-09-14T12:01:00.920Z,29.60
2018-09-14T12:02:00.949Z,30.90
2018-09-14T12:03:00.948Z,32.30
2018-09-14T12:04:01.067Z,33.80
2018-09-14T12:05:00.979Z,30.50
2018-09-14T12:06:00.984Z,31.50
2018-09-14T12:07:01.005Z,32.30
2018-09-14T12:08:01.026Z,32.70
2018-09-14T12:09:01.135Z,33.90
2018-09-14T12:10:01.039Z,30.90
2018-09-14T12:11:01.059Z,31.40
2018-09-14T12:12:01.071Z,32.10
2018-09-14T12:13:01.086Z,33.30
2018-09-14T12:14:01.398Z,30.40
2018-09-14T12:15:01.119Z,34.10
2018-09-14T12:16:01.122Z,33.90
2018-09-14T12:17:01.120Z,33.50
2018-09-14T12:18:01.138Z,31.90
2018-09-14T12:19:01.166Z,36.80
2018-09-14T12:20:01.422Z,33.00
2018-09-14T12:21:01.179Z,23.80
2018-09-14T12:22:01.193Z,28.00
2018-09-14T12:23:01.214Z,31.40
2018-09-14T12:24:01.219Z,28.40
2018-09-14T12:25:01.332Z,29.60
2018-09-14T12:26:01.249Z,24.60
2018-09-14T12:27:01.263Z,27.40
2018-09-14T12:28:01.271Z,22.60
2018-09-14T12:29:01.326Z,26.40
2018-09-14T12:30:01.436Z,26.90
2018-09-14T12:31:01.303Z,23.40
2018-09-14T12:32:01.329Z,24.60
2018-09-14T12:33:01.351Z,27.00
2018-09-14T12:34:01.347Z,24.80
2018-09-14T12:35:01.523Z,26.60
2018-09-14T12:36:01.379Z,26.60
2018-09-14T12:37:01.386Z,26.10
2018-09-14T12:38:01.399Z,27.40
2018-09-14T12:39:01.410Z,29.50
2018-09-14T12:40:01.535Z,29.30
2018-09-14T12:41:01.451Z,31.60
2018-09-14T12:42:01.459Z,32.30
2018-09-14T12:43:01.463Z,37.30
2018-09-14T12:44:01.489Z,42.40
2018-09-14T12:45:01.651Z,45.00
2018-09-14T12:46:01.514Z,44.30
2018-09-14T12:47:01.521Z,36.10
2018-09-14T12:48:01.580Z,30.90
2018-09-14T12:49:01.557Z,28.10
2018-09-14T12:50:01.729Z,24.50
2018-09-14T12:51:01.572Z,25.10
2018-09-14T12:52:01.583Z,23.50